createdAt,value
2023-06-17T00:00:56.769Z,16.14
2023-06-17T00:03:23.561Z,16.10
2023-06-17T00:05:50.523Z,16.04
2023-06-17T00:08:17.249Z,15.99
2023-06-17T00:10:44.959Z,15.92
2023-06-17T00:13:11.926Z,15.84
2023-06-17T00:15:38.423Z,15.76
2023-06-17T00:18:06.698Z,15.69
2023-06-17T00:20:37.704Z,15.64
2023-06-17T00:23:05.304Z,15.58
2023-06-17T00:25:32.045Z,15.53
2023-06-17T00:27:58.673Z,15.50
2023-06-17T00:30:25.256Z,15.49
2023-06-17T00:32:51.957Z,15.45
2023-06-17T00:35:19.204Z,15.43
2023-06-17T00:37:45.737Z,15.42
2023-06-17T00:40:12.575Z,15.41
2023-06-17T00:42:41.276Z,15.40
2023-06-17T00:45:08.008Z,15.33
2023-06-17T00:47:35.048Z,15.30
2023-06-17T00:50:02.379Z,15.30
2023-06-17T00:52:40.528Z,15.26
2023-06-17T00:55:10.021Z,15.24
2023-06-17T00:57:36.960Z,15.19
2023-06-17T01:00:07.314Z,15.10
2023-06-17T01:02:33.944Z,15.08
2023-06-17T01:05:03.034Z,15.05
2023-06-17T01:07:54.351Z,15.01
2023-06-17T01:10:29.774Z,15.00
2023-06-17T01:12:58.514Z,14.90
2023-06-17T01:15:25.411Z,14.86
2023-06-17T01:17:56.114Z,14.83
2023-06-17T01:20:24.744Z,14.76
2023-06-17T01:23:32.751Z,14.69
2023-06-17T01:26:02.956Z,14.65
2023-06-17T01:28:30.683Z,14.63
2023-06-17T01:30:58.395Z,14.60
2023-06-17T01:33:26.105Z,14.54
2023-06-17T01:36:00.371Z,14.55
2023-06-17T01:38:43.095Z,14.47
2023-06-17T01:41:14.994Z,14.48
2023-06-17T01:43:44.092Z,14.42
2023-06-17T01:46:13.055Z,14.35
2023-06-17T01:48:40.926Z,14.34
2023-06-17T01:51:07.505Z,14.30
2023-06-17T01:53:34.227Z,14.31
2023-06-17T01:56:00.970Z,14.26
2023-06-17T01:58:27.636Z,14.27
2023-06-17T02:00:54.214Z,14.23
2023-06-17T02:03:20.938Z,14.20
2023-06-17T02:05:47.983Z,14.23
2023-06-17T02:08:16.089Z,14.22
2023-06-17T02:10:42.979Z,14.27
2023-06-17T02:13:09.836Z,14.26
2023-06-17T02:15:36.542Z,14.28
2023-06-17T02:18:03.311Z,14.26
2023-06-17T02:20:30.158Z,14.23
2023-06-17T02:22:56.861Z,14.22
2023-06-17T02:25:23.507Z,14.19
2023-06-17T02:27:50.193Z,14.19
2023-06-17T02:30:16.784Z,14.13
2023-06-17T02:32:43.404Z,14.12
2023-06-17T02:35:11.627Z,14.06
2023-06-17T02:37:38.795Z,14.03
2023-06-17T02:40:09.829Z,13.98
2023-06-17T02:42:37.611Z,13.96
2023-06-17T02:45:05.725Z,13.94
2023-06-17T02:47:32.295Z,13.95
2023-06-17T02:49:58.941Z,13.96
2023-06-17T02:52:25.974Z,13.94
2023-06-17T02:54:52.755Z,13.91
2023-06-17T02:57:19.366Z,13.88
2023-06-17T02:59:45.998Z,13.86
2023-06-17T03:02:12.618Z,13.82
2023-06-17T03:04:39.430Z,13.85
2023-06-17T03:07:07.339Z,13.86
2023-06-17T03:09:34.186Z,13.84
2023-06-17T03:12:01.731Z,13.85
2023-06-17T03:14:29.626Z,13.86
2023-06-17T03:17:00.200Z,13.86
2023-06-17T03:19:27.423Z,13.88
2023-06-17T03:21:54.255Z,13.91
2023-06-17T03:24:21.039Z,13.95
2023-06-17T03:26:47.695Z,13.95
2023-06-17T03:29:14.249Z,14.01
2023-06-17T03:31:40.921Z,14.04
2023-06-17T03:34:07.553Z,14.06
2023-06-17T03:36:35.293Z,14.10
2023-06-17T03:39:01.798Z,14.11
2023-06-17T03:41:28.314Z,14.09
2023-06-17T03:43:54.882Z,14.13
2023-06-17T03:46:21.457Z,14.18
2023-06-17T03:48:48.171Z,14.21
2023-06-17T03:51:15.202Z,14.25
2023-06-17T03:53:41.878Z,14.28
2023-06-17T03:56:08.548Z,14.30
2023-06-17T03:58:35.109Z,14.31
2023-06-17T04:01:01.722Z,14.25
2023-06-17T04:03:28.478Z,14.28
2023-06-17T04:05:55.299Z,14.27
2023-06-17T04:08:23.502Z,14.31
2023-06-17T04:10:51.122Z,14.33
2023-06-17T04:13:17.916Z,14.35
2023-06-17T04:15:46.910Z,14.41
2023-06-17T04:18:13.592Z,14.47
2023-06-17T04:20:41.302Z,14.52
2023-06-17T04:23:08.036Z,14.55
2023-06-17T04:25:37.977Z,14.62
2023-06-17T04:28:08.637Z,14.69
2023-06-17T04:30:35.378Z,14.78
2023-06-17T04:33:02.813Z,14.89
2023-06-17T04:35:29.537Z,14.96
2023-06-17T04:37:56.898Z,15.08
2023-06-17T04:40:24.919Z,15.17
2023-06-17T04:42:51.918Z,15.27
2023-06-17T04:45:18.887Z,15.34
2023-06-17T04:47:46.054Z,15.51
2023-06-17T04:50:13.923Z,15.68
2023-06-17T04:52:44.965Z,15.91
2023-06-17T04:55:15.371Z,16.16
2023-06-17T04:57:43.786Z,16.42
2023-06-17T05:00:15.294Z,16.73
2023-06-17T05:02:41.995Z,17.02
2023-06-17T05:05:09.444Z,17.23
2023-06-17T05:07:36.385Z,17.42
2023-06-17T05:10:03.620Z,17.52
2023-06-17T05:12:30.356Z,17.73
2023-06-17T05:14:56.926Z,17.88
2023-06-17T05:17:23.805Z,18.03
2023-06-17T05:19:51.030Z,18.11
2023-06-17T05:22:17.762Z,18.17
2023-06-17T05:24:44.485Z,18.27
2023-06-17T05:27:11.169Z,18.29
2023-06-17T05:29:40.159Z,18.28
2023-06-17T05:32:07.407Z,18.35
2023-06-17T05:34:34.272Z,18.34
2023-06-17T05:37:00.973Z,18.31
2023-06-17T05:39:27.799Z,18.33
2023-06-17T05:41:54.314Z,18.33
2023-06-17T05:44:21.296Z,18.34
2023-06-17T05:46:47.803Z,18.42
2023-06-17T05:49:15.974Z,18.50
2023-06-17T05:51:43.268Z,18.56
2023-06-17T05:54:09.826Z,18.56
2023-06-17T05:56:36.481Z,18.55
2023-06-17T05:59:03.235Z,18.57
2023-06-17T06:01:29.960Z,18.61
2023-06-17T06:03:57.243Z,18.65
2023-06-17T06:06:23.866Z,18.71
2023-06-17T06:08:51.340Z,18.76
2023-06-17T06:11:18.073Z,18.85
2023-06-17T06:13:44.986Z,18.92
2023-06-17T06:16:11.631Z,19.05
2023-06-17T06:18:38.205Z,19.18
2023-06-17T06:21:05.878Z,19.32
2023-06-17T06:23:32.627Z,19.43
2023-06-17T06:25:59.195Z,19.38
2023-06-17T06:28:25.973Z,19.40
2023-06-17T06:30:52.646Z,19.46
2023-06-17T06:33:19.300Z,19.50
2023-06-17T06:35:46.346Z,19.53
2023-06-17T06:38:13.203Z,19.51
2023-06-17T06:40:41.773Z,19.64
2023-06-17T06:43:08.226Z,19.71
2023-06-17T06:45:34.837Z,19.79
2023-06-17T06:48:01.563Z,19.86
2023-06-17T06:50:28.515Z,19.91
2023-06-17T06:52:55.094Z,20.00
2023-06-17T06:55:21.617Z,20.00
2023-06-17T06:57:48.183Z,20.01
2023-06-17T07:00:15.645Z,20.01
2023-06-17T07:02:42.200Z,20.02
2023-06-17T07:05:09.780Z,19.99
2023-06-17T07:07:36.436Z,19.95
2023-06-17T07:10:03.194Z,19.96
2023-06-17T07:12:29.748Z,19.96
2023-06-17T07:14:56.990Z,19.93
2023-06-17T07:17:23.538Z,19.92
2023-06-17T07:19:50.203Z,19.99
2023-06-17T07:22:17.118Z,20.02
2023-06-17T07:24:43.663Z,20.07
2023-06-17T07:27:10.219Z,20.21
2023-06-17T07:29:37.075Z,20.35
2023-06-17T07:32:03.987Z,20.55
2023-06-17T07:34:30.808Z,20.63
2023-06-17T07:36:57.333Z,20.84
2023-06-17T07:39:23.970Z,21.00
2023-06-17T07:41:50.617Z,21.22
2023-06-17T07:44:17.312Z,21.65
2023-06-17T07:46:43.915Z,22.16
2023-06-17T07:49:26.000Z,22.59
2023-06-17T07:51:53.005Z,22.87
2023-06-17T07:54:19.661Z,22.93
2023-06-17T07:56:46.370Z,22.79
2023-06-17T07:59:12.973Z,22.63
2023-06-17T08:01:40.296Z,22.51
2023-06-17T08:04:07.160Z,22.45
2023-06-17T08:06:35.118Z,22.54
2023-06-17T08:09:01.728Z,22.80
2023-06-17T08:11:28.466Z,23.04
2023-06-17T08:13:55.237Z,23.15
2023-06-17T08:16:21.948Z,23.30
2023-06-17T08:18:48.587Z,23.65
2023-06-17T08:21:15.292Z,24.03
2023-06-17T08:23:42.531Z,24.02
2023-06-17T08:26:09.101Z,24.02
2023-06-17T08:28:35.646Z,23.82
2023-06-17T08:31:02.253Z,23.72
2023-06-17T08:33:30.540Z,23.72
2023-06-17T08:35:57.367Z,23.91
2023-06-17T08:38:24.177Z,24.18
2023-06-17T08:40:51.099Z,24.46
2023-06-17T08:43:19.244Z,24.86
2023-06-17T08:45:49.545Z,24.95
2023-06-17T08:48:16.899Z,25.07
2023-06-17T08:50:46.131Z,25.07
2023-06-17T08:53:14.965Z,25.17
2023-06-17T08:55:42.202Z,25.26
2023-06-17T08:58:09.635Z,25.39
2023-06-17T09:00:37.017Z,25.63
2023-06-17T09:03:08.378Z,26.27
2023-06-17T09:05:36.463Z,27.00
2023-06-17T09:08:03.263Z,27.77
2023-06-17T09:10:30.080Z,28.28
2023-06-17T09:13:00.968Z,28.74
2023-06-17T09:15:27.701Z,28.75
2023-06-17T09:17:54.743Z,28.58
2023-06-17T09:20:21.901Z,28.34
2023-06-17T09:22:49.473Z,27.76
2023-06-17T09:25:17.278Z,27.48
2023-06-17T09:28:15.094Z,27.11
2023-06-17T09:30:46.384Z,27.00
2023-06-17T09:33:23.200Z,26.99
2023-06-17T09:36:05.012Z,27.51
2023-06-17T09:38:32.573Z,28.05
2023-06-17T09:41:00.791Z,28.22
2023-06-17T09:43:28.973Z,28.01
2023-06-17T09:46:02.642Z,27.63
2023-06-17T09:48:39.385Z,27.27
2023-06-17T09:51:10.602Z,26.72
2023-06-17T09:53:38.731Z,26.51
2023-06-17T09:56:10.378Z,26.43
2023-06-17T09:58:40.661Z,26.74
2023-06-17T10:01:09.342Z,27.50
2023-06-17T10:03:36.543Z,28.24
2023-06-17T10:06:08.686Z,28.82
2023-06-17T10:08:41.023Z,29.33
2023-06-17T10:11:09.063Z,29.74
2023-06-17T10:13:40.782Z,30.02
2023-06-17T10:16:15.144Z,30.52
2023-06-17T10:18:44.654Z,31.08
2023-06-17T10:21:13.523Z,31.45
2023-06-17T10:23:43.006Z,31.13
2023-06-17T10:26:12.790Z,30.69
2023-06-17T10:29:07.436Z,30.20
2023-06-17T10:31:41.596Z,30.55
2023-06-17T10:34:26.424Z,31.02
2023-06-17T10:36:59.821Z,31.34
2023-06-17T10:39:26.595Z,30.98
2023-06-17T10:41:57.091Z,30.28
2023-06-17T10:44:28.213Z,29.49
2023-06-17T10:46:57.168Z,28.75
2023-06-17T10:49:24.158Z,28.11
2023-06-17T10:52:03.275Z,27.87
2023-06-17T10:54:31.663Z,27.64
2023-06-17T10:57:01.164Z,27.42
2023-06-17T10:59:29.553Z,27.20
2023-06-17T11:02:09.105Z,26.90
2023-06-17T11:04:37.932Z,26.76
2023-06-17T11:07:06.118Z,26.48
2023-06-17T11:09:35.242Z,26.34
2023-06-17T11:12:05.201Z,26.16
2023-06-17T11:14:34.213Z,26.11
2023-06-17T11:17:01.328Z,25.97
2023-06-17T11:19:27.964Z,25.94
2023-06-17T11:21:58.961Z,26.01
2023-06-17T11:24:26.858Z,26.07
2023-06-17T11:26:54.116Z,26.05
2023-06-17T11:29:21.088Z,26.30
2023-06-17T11:31:48.036Z,27.43
2023-06-17T11:34:15.459Z,28.38
2023-06-17T11:36:42.568Z,29.30
2023-06-17T11:39:10.851Z,30.21
2023-06-17T11:41:37.902Z,30.81
2023-06-17T11:44:04.797Z,31.17
2023-06-17T11:46:31.418Z,30.94
2023-06-17T11:48:58.628Z,30.33
2023-06-17T11:51:25.293Z,29.95
2023-06-17T11:53:53.642Z,29.73
2023-06-17T11:56:23.337Z,29.49
2023-06-17T11:58:52.293Z,29.48
2023-06-17T12:01:25.560Z,29.34
2023-06-17T12:03:52.656Z,29.14
2023-06-17T12:06:20.701Z,29.04
2023-06-17T12:08:58.633Z,29.25
2023-06-17T12:11:27.299Z,29.39
2023-06-17T12:13:55.831Z,30.05
2023-06-17T12:16:31.789Z,30.71
2023-06-17T12:18:59.390Z,31.32
2023-06-17T12:21:26.333Z,31.72
2023-06-17T12:23:54.731Z,31.81
2023-06-17T12:26:22.533Z,31.98
2023-06-17T12:28:49.590Z,32.06
2023-06-17T12:31:16.649Z,32.05
2023-06-17T12:33:43.803Z,31.80
2023-06-17T12:36:10.883Z,31.37
2023-06-17T12:38:39.131Z,31.07
2023-06-17T12:41:05.577Z,31.16
2023-06-17T12:43:32.383Z,31.43
2023-06-17T12:46:01.225Z,31.80
2023-06-17T12:48:29.276Z,31.98
2023-06-17T12:50:56.819Z,31.81
2023-06-17T12:53:24.602Z,31.68
2023-06-17T12:55:51.996Z,31.80
2023-06-17T12:58:19.299Z,31.91
2023-06-17T13:00:46.254Z,31.96
2023-06-17T13:03:15.482Z,31.89
2023-06-17T13:05:43.748Z,31.57
2023-06-17T13:08:11.608Z,30.87
2023-06-17T13:10:39.533Z,30.18
2023-06-17T13:13:07.673Z,29.96
2023-06-17T13:15:35.243Z,30.09
2023-06-17T13:18:01.887Z,30.45
2023-06-17T13:20:28.453Z,30.68
2023-06-17T13:22:55.183Z,30.46
2023-06-17T13:25:21.818Z,29.90
2023-06-17T13:27:48.466Z,29.43
2023-06-17T13:30:15.599Z,29.17
2023-06-17T13:32:43.338Z,28.79
2023-06-17T13:35:10.127Z,28.34
2023-06-17T13:37:36.898Z,27.99
2023-06-17T13:40:06.600Z,27.72
2023-06-17T13:42:33.878Z,27.48
2023-06-17T13:45:01.323Z,27.23
2023-06-17T13:47:28.363Z,27.01
2023-06-17T13:49:55.391Z,27.11
2023-06-17T13:52:22.327Z,27.20
2023-06-17T13:54:48.995Z,27.28
2023-06-17T13:57:16.013Z,27.34
2023-06-17T13:59:43.448Z,27.38
2023-06-17T14:02:10.258Z,27.56
2023-06-17T14:04:37.074Z,27.85
2023-06-17T14:07:04.086Z,27.89
2023-06-17T14:09:31.127Z,27.59
2023-06-17T14:11:57.803Z,27.32
2023-06-17T14:14:24.526Z,27.04
2023-06-17T14:16:51.338Z,26.82
2023-06-17T14:19:18.188Z,26.85
2023-06-17T14:22:04.673Z,27.06
2023-06-17T14:24:31.290Z,27.06
2023-06-17T14:27:48.663Z,27.05
2023-06-17T14:30:15.817Z,27.15
2023-06-17T14:32:44.447Z,27.16
2023-06-17T14:35:14.157Z,27.22
2023-06-17T14:37:42.752Z,27.48
2023-06-17T14:40:10.941Z,27.74
2023-06-17T14:42:39.919Z,27.96
2023-06-17T14:45:12.313Z,28.16
2023-06-17T14:47:40.396Z,28.27
2023-06-17T14:50:09.741Z,28.27
2023-06-17T14:52:36.661Z,28.33
2023-06-17T14:55:04.549Z,28.20
2023-06-17T14:57:33.411Z,28.16
2023-06-17T15:00:01.024Z,28.07
2023-06-17T15:02:58.090Z,28.08
2023-06-17T15:05:27.867Z,27.80
2023-06-17T15:07:54.935Z,27.63
2023-06-17T15:10:22.018Z,27.54
2023-06-17T15:12:49.135Z,27.46
2023-06-17T15:15:18.603Z,27.32
2023-06-17T15:17:45.502Z,27.18
2023-06-17T15:20:12.679Z,27.03
2023-06-17T15:22:39.730Z,26.96
2023-06-17T15:25:07.093Z,26.96
2023-06-17T15:27:34.124Z,27.00
2023-06-17T15:30:02.004Z,27.11
2023-06-17T15:32:28.620Z,27.18
2023-06-17T15:34:56.231Z,27.23
2023-06-17T15:37:22.793Z,27.28
2023-06-17T15:39:49.644Z,27.29
2023-06-17T15:42:16.486Z,27.22
2023-06-17T15:44:43.429Z,27.12
2023-06-17T15:47:10.140Z,27.10
2023-06-17T15:49:37.654Z,27.11
2023-06-17T15:52:05.562Z,27.10
2023-06-17T15:54:32.203Z,27.10
2023-06-17T15:56:58.844Z,27.14
2023-06-17T15:59:27.191Z,27.16
2023-06-17T16:01:54.455Z,27.19
2023-06-17T16:04:36.687Z,27.15
2023-06-17T16:07:07.921Z,27.04
2023-06-17T16:09:38.233Z,27.07
2023-06-17T16:12:05.847Z,27.01
2023-06-17T16:14:34.039Z,26.99
2023-06-17T16:17:02.792Z,26.92
2023-06-17T16:19:32.390Z,26.85
2023-06-17T16:22:04.198Z,26.71
2023-06-17T16:24:31.888Z,26.67
2023-06-17T16:26:59.712Z,26.62
2023-06-17T16:29:26.592Z,26.58
2023-06-17T16:31:53.211Z,26.56
2023-06-17T16:34:19.860Z,26.53
2023-06-17T16:36:47.754Z,26.42
2023-06-17T16:39:14.491Z,26.33
2023-06-17T16:41:41.557Z,26.38
2023-06-17T16:44:08.353Z,26.39
2023-06-17T16:46:35.768Z,26.36
2023-06-17T16:49:02.693Z,26.30
2023-06-17T16:51:31.042Z,26.21
2023-06-17T16:53:57.984Z,26.20
2023-06-17T16:56:24.849Z,26.13
2023-06-17T16:58:51.561Z,26.09
2023-06-17T17:01:18.454Z,26.03
2023-06-17T17:03:45.470Z,25.92
2023-06-17T17:06:12.090Z,25.83
2023-06-17T17:08:38.654Z,25.74
2023-06-17T17:11:05.324Z,25.69
2023-06-17T17:13:47.248Z,25.54
2023-06-17T17:16:14.989Z,25.42
2023-06-17T17:18:41.658Z,25.35
2023-06-17T17:21:08.334Z,25.33
2023-06-17T17:23:35.136Z,25.25
2023-06-17T17:26:01.974Z,25.18
2023-06-17T17:28:29.274Z,25.18
2023-06-17T17:30:56.288Z,25.15
2023-06-17T17:33:24.101Z,25.04
2023-06-17T17:35:53.924Z,24.98
2023-06-17T17:38:20.783Z,25.02
2023-06-17T17:40:47.649Z,24.94
2023-06-17T17:43:14.272Z,24.87
2023-06-17T17:45:40.832Z,24.79
2023-06-17T17:48:07.583Z,24.73
2023-06-17T17:50:34.731Z,24.66
2023-06-17T17:53:01.463Z,24.65
2023-06-17T17:55:28.181Z,24.61
2023-06-17T17:57:54.919Z,24.62
2023-06-17T18:00:22.017Z,24.55
2023-06-17T18:02:48.884Z,24.53
2023-06-17T18:05:15.695Z,24.50
2023-06-17T18:07:42.536Z,24.45
2023-06-17T18:10:09.540Z,24.41
2023-06-17T18:12:36.517Z,24.38
2023-06-17T18:15:03.437Z,24.30
2023-06-17T18:17:30.213Z,24.27
2023-06-17T18:19:56.751Z,24.24
2023-06-17T18:22:23.571Z,24.20
2023-06-17T18:24:50.428Z,24.12
2023-06-17T18:27:30.817Z,24.01
2023-06-17T18:30:01.794Z,23.90
2023-06-17T18:32:28.424Z,23.75
2023-06-17T18:34:55.007Z,23.60
2023-06-17T18:37:21.602Z,23.48
2023-06-17T18:39:48.281Z,23.35
2023-06-17T18:42:15.087Z,23.20
2023-06-17T18:44:41.880Z,23.06
2023-06-17T18:47:08.851Z,22.98
2023-06-17T18:49:35.564Z,22.85
2023-06-17T18:52:02.432Z,22.73
2023-06-17T18:54:29.039Z,22.65
2023-06-17T18:56:56.492Z,22.68
2023-06-17T19:03:09.969Z,22.65
2023-06-17T19:05:39.596Z,22.61
2023-06-17T19:08:06.193Z,22.54
2023-06-17T19:10:32.831Z,22.48
2023-06-17T19:12:59.677Z,22.33
2023-06-17T19:15:26.418Z,22.26
2023-06-17T19:17:53.215Z,22.24
2023-06-17T19:20:20.153Z,22.16
2023-06-17T19:22:47.444Z,22.10
2023-06-17T19:25:14.213Z,22.04
2023-06-17T19:27:41.130Z,22.02
2023-06-17T19:30:08.100Z,21.95
2023-06-17T19:32:34.631Z,21.89
2023-06-17T19:35:02.074Z,21.81
2023-06-17T19:37:29.837Z,21.78
2023-06-17T19:39:56.369Z,21.71
2023-06-17T19:42:22.853Z,21.59
2023-06-17T19:44:56.996Z,21.47
2023-06-17T19:47:25.036Z,21.32
2023-06-17T19:49:52.969Z,21.14
2023-06-17T19:52:20.462Z,20.89
2023-06-17T19:54:47.129Z,20.65
2023-06-17T19:57:13.729Z,20.42
2023-06-17T19:59:40.599Z,20.27
2023-06-17T20:02:07.526Z,20.13
2023-06-17T20:04:35.074Z,19.97
2023-06-17T20:07:02.458Z,19.89
2023-06-17T20:09:29.000Z,19.82
2023-06-17T20:11:55.460Z,19.84
2023-06-17T20:14:22.008Z,19.75
2023-06-17T20:16:48.551Z,19.62
2023-06-17T20:19:15.461Z,19.56
2023-06-17T20:21:41.944Z,19.42
2023-06-17T20:24:08.541Z,19.33
2023-06-17T20:26:35.080Z,19.25
2023-06-17T20:29:01.597Z,19.22
2023-06-17T20:31:28.346Z,19.27
2023-06-17T20:33:54.865Z,19.29
2023-06-17T20:36:21.505Z,19.26
2023-06-17T20:38:48.078Z,19.08
2023-06-17T20:41:14.607Z,19.01
2023-06-17T20:43:41.156Z,18.88
2023-06-17T20:46:07.842Z,18.83
2023-06-17T20:48:34.311Z,18.73
2023-06-17T20:51:00.980Z,18.69
2023-06-17T20:53:27.485Z,18.65
2023-06-17T20:55:54.057Z,18.55
2023-06-17T20:58:20.577Z,18.42
2023-06-17T21:00:47.109Z,18.35
2023-06-17T21:03:14.098Z,18.23
2023-06-17T21:05:40.688Z,18.14
2023-06-17T21:08:07.211Z,18.10
2023-06-17T21:10:33.705Z,18.08
2023-06-17T21:13:00.545Z,18.08
2023-06-17T21:15:27.054Z,18.06
2023-06-17T21:17:53.636Z,18.06
2023-06-17T21:20:21.064Z,18.04
2023-06-17T21:22:47.740Z,18.00
2023-06-17T21:25:14.391Z,18.01
2023-06-17T21:27:40.921Z,18.06
2023-06-17T21:30:07.961Z,18.14
2023-06-17T21:32:34.531Z,18.22
2023-06-17T21:35:01.342Z,18.27
2023-06-17T21:37:27.842Z,18.30
2023-06-17T21:39:54.280Z,18.26
2023-06-17T21:42:20.816Z,18.21
2023-06-17T21:44:47.834Z,18.16
2023-06-17T21:47:14.357Z,18.10
2023-06-17T21:49:41.122Z,18.10
2023-06-17T21:52:07.697Z,18.11
2023-06-17T21:54:34.274Z,18.14
2023-06-17T21:57:00.747Z,18.14
2023-06-17T21:59:27.182Z,18.11
2023-06-17T22:01:53.743Z,18.01
2023-06-17T22:04:20.582Z,17.78
2023-06-17T22:06:47.109Z,17.64
2023-06-17T22:09:13.721Z,17.49
2023-06-17T22:11:40.865Z,17.34
2023-06-17T22:14:07.850Z,17.22
2023-06-17T22:16:35.435Z,17.12
2023-06-17T22:19:01.879Z,17.03
2023-06-17T22:21:28.342Z,16.97
2023-06-17T22:23:54.848Z,16.89
2023-06-17T22:26:21.383Z,16.81
2023-06-17T22:28:47.947Z,16.78
2023-06-17T22:31:14.595Z,16.75
2023-06-17T22:33:41.030Z,16.74
2023-06-17T22:36:07.597Z,16.75
2023-06-17T22:38:34.136Z,16.74
2023-06-17T22:41:00.712Z,16.69
2023-06-17T22:43:27.239Z,16.67
2023-06-17T22:45:53.697Z,16.68
2023-06-17T22:48:20.538Z,16.67
2023-06-17T22:50:47.311Z,16.69
2023-06-17T22:53:13.898Z,16.67
2023-06-17T22:55:40.648Z,16.69
2023-06-17T22:58:07.210Z,16.66
2023-06-17T23:00:33.809Z,16.66
2023-06-17T23:03:00.488Z,16.62
2023-06-17T23:05:27.202Z,16.59
2023-06-17T23:07:53.652Z,16.62
2023-06-17T23:10:20.331Z,16.62
2023-06-17T23:12:47.156Z,16.61
2023-06-17T23:15:13.769Z,16.56
2023-06-17T23:17:40.257Z,16.52
2023-06-17T23:20:07.582Z,16.48
2023-06-17T23:22:34.720Z,16.41
2023-06-17T23:25:06.974Z,16.34
2023-06-17T23:27:34.477Z,16.28
2023-06-17T23:30:01.021Z,16.20
2023-06-17T23:32:27.686Z,16.10
2023-06-17T23:34:54.636Z,16.02
2023-06-17T23:37:21.338Z,15.95
2023-06-17T23:39:48.315Z,15.91
2023-06-17T23:42:14.863Z,15.81
2023-06-17T23:44:41.361Z,15.78
2023-06-17T23:47:08.790Z,15.75
2023-06-17T23:49:39.179Z,15.70
2023-06-17T23:52:10.848Z,15.67
2023-06-17T23:54:38.480Z,15.65
2023-06-17T23:57:05.583Z,15.62
2023-06-17T23:59:33.250Z,15.60
